createdAt,value
2022-10-23T00:01:27.298Z,99.90
2022-10-23T00:03:57.081Z,99.90
2022-10-23T00:06:26.698Z,99.90
2022-10-23T00:08:56.277Z,99.90
2022-10-23T00:11:26.518Z,99.90
2022-10-23T00:13:58.065Z,99.90
2022-10-23T00:16:26.841Z,99.90
2022-10-23T00:18:55.131Z,99.90
2022-10-23T00:21:23.956Z,99.90
2022-10-23T00:23:52.370Z,99.90
2022-10-23T00:26:21.053Z,99.90
2022-10-23T00:28:51.905Z,99.90
2022-10-23T00:31:22.913Z,99.90
2022-10-23T00:33:52.023Z,99.90
2022-10-23T00:36:21.839Z,99.90
2022-10-23T00:38:51.145Z,99.90
2022-10-23T00:41:21.854Z,99.90
2022-10-23T00:44:02.895Z,99.90
2022-10-23T00:46:32.782Z,99.90
2022-10-23T00:49:02.121Z,99.90
2022-10-23T00:51:35.685Z,99.90
2022-10-23T00:54:22.986Z,99.90
2022-10-23T00:56:53.646Z,99.90
2022-10-23T00:59:21.865Z,99.90
2022-10-23T01:01:51.641Z,99.90
2022-10-23T01:04:20.948Z,99.90
2022-10-23T01:06:58.279Z,99.90
2022-10-23T01:09:33.668Z,99.90
2022-10-23T01:12:14.609Z,99.90
2022-10-23T01:14:54.823Z,99.90
2022-10-23T01:17:31.169Z,99.90
2022-10-23T01:20:15.225Z,99.90
2022-10-23T01:23:10.633Z,99.90
2022-10-23T01:26:02.938Z,99.90
2022-10-23T01:28:40.925Z,99.90
2022-10-23T01:31:26.887Z,99.90
2022-10-23T01:34:00.079Z,99.90
2022-10-23T01:36:31.647Z,99.90
2022-10-23T01:39:06.363Z,99.90
2022-10-23T01:41:40.856Z,99.90
2022-10-23T01:44:15.818Z,99.90
2022-10-23T01:46:45.506Z,99.90
2022-10-23T01:49:16.068Z,99.90
2022-10-23T01:51:52.706Z,99.90
2022-10-23T01:54:25.294Z,99.90
2022-10-23T01:56:55.484Z,99.90
2022-10-23T01:59:34.217Z,99.90
2022-10-23T02:02:04.510Z,99.90
2022-10-23T02:04:38.088Z,99.90
2022-10-23T02:07:06.694Z,99.90
2022-10-23T02:09:35.615Z,99.90
2022-10-23T02:12:09.895Z,99.90
2022-10-23T02:14:47.576Z,99.90
2022-10-23T02:17:22.575Z,99.90
2022-10-23T02:19:59.444Z,99.90
2022-10-23T02:22:31.451Z,99.90
2022-10-23T02:25:05.671Z,99.90
2022-10-23T02:27:40.055Z,99.90
2022-10-23T02:30:13.253Z,99.90
2022-10-23T02:32:47.117Z,99.90
2022-10-23T02:35:21.216Z,99.90
2022-10-23T02:37:55.486Z,99.90
2022-10-23T02:40:35.046Z,99.90
2022-10-23T02:43:08.081Z,99.90
2022-10-23T02:45:45.501Z,99.90
2022-10-23T02:48:18.629Z,99.90
2022-10-23T02:50:55.244Z,99.90
2022-10-23T02:53:31.567Z,99.90
2022-10-23T02:56:07.246Z,99.90
2022-10-23T02:58:44.596Z,99.90
2022-10-23T03:01:17.480Z,99.90
2022-10-23T03:03:51.811Z,99.90
2022-10-23T03:06:20.697Z,99.90
2022-10-23T03:08:54.607Z,99.90
2022-10-23T03:11:23.778Z,99.90
2022-10-23T03:13:52.127Z,99.90
2022-10-23T03:16:21.727Z,99.90
2022-10-23T03:18:55.796Z,99.90
2022-10-23T03:21:24.645Z,99.90
2022-10-23T03:23:54.886Z,99.90
2022-10-23T03:26:35.456Z,99.90
2022-10-23T03:29:03.872Z,99.90
2022-10-23T03:31:33.627Z,99.90
2022-10-23T03:34:04.077Z,99.90
2022-10-23T03:36:34.692Z,99.90
2022-10-23T03:39:04.348Z,99.90
2022-10-23T03:41:33.496Z,99.90
2022-10-23T03:44:01.898Z,99.90
2022-10-23T03:46:30.248Z,99.90
2022-10-23T03:48:59.936Z,99.90
2022-10-23T03:51:28.598Z,99.90
2022-10-23T03:53:59.018Z,99.90
2022-10-23T03:56:27.505Z,99.90
2022-10-23T03:58:55.804Z,99.90
2022-10-23T04:01:27.519Z,99.90
2022-10-23T04:03:56.357Z,99.90
2022-10-23T04:06:28.350Z,99.90
2022-10-23T04:08:59.020Z,99.90
2022-10-23T04:11:27.388Z,99.90
2022-10-23T04:13:55.656Z,99.90
2022-10-23T04:16:25.371Z,99.90
2022-10-23T04:18:53.967Z,99.90
2022-10-23T04:21:22.341Z,99.90
2022-10-23T04:23:51.947Z,99.90
2022-10-23T04:26:21.851Z,99.90
2022-10-23T04:28:50.189Z,99.90
2022-10-23T04:31:18.646Z,99.90
2022-10-23T04:33:46.889Z,99.90
2022-10-23T04:36:28.735Z,99.90
2022-10-23T04:39:01.472Z,99.90
2022-10-23T04:41:29.876Z,99.90
2022-10-23T04:43:58.218Z,99.90
2022-10-23T04:46:27.027Z,99.90
2022-10-23T04:48:55.325Z,99.90
2022-10-23T04:51:23.627Z,99.90
2022-10-23T04:54:16.545Z,99.90
2022-10-23T04:56:56.056Z,99.90
2022-10-23T04:59:25.346Z,99.90
2022-10-23T05:01:53.728Z,99.90
2022-10-23T05:04:25.283Z,99.90
2022-10-23T05:07:12.337Z,99.90
2022-10-23T05:10:08.780Z,99.90
2022-10-23T05:13:00.137Z,99.90
2022-10-23T05:15:28.503Z,99.90
2022-10-23T05:17:59.816Z,99.90
2022-10-23T05:20:32.167Z,99.90
2022-10-23T05:23:02.997Z,99.90
2022-10-23T05:25:32.859Z,99.90
2022-10-23T05:28:12.799Z,99.90
2022-10-23T05:30:41.215Z,99.90
2022-10-23T05:33:10.007Z,99.90
2022-10-23T05:35:43.624Z,99.90
2022-10-23T05:38:14.179Z,99.90
2022-10-23T05:40:44.197Z,99.90
2022-10-23T05:43:18.181Z,99.90
2022-10-23T05:46:04.897Z,99.90
2022-10-23T05:48:35.401Z,99.90
2022-10-23T05:51:23.369Z,99.90
2022-10-23T05:54:10.551Z,99.90
2022-10-23T05:57:12.996Z,99.90
2022-10-23T05:59:51.024Z,99.90
2022-10-23T06:02:41.732Z,99.90
2022-10-23T06:05:37.352Z,99.90
2022-10-23T06:08:32.385Z,99.90
2022-10-23T06:11:06.945Z,99.90
2022-10-23T06:13:36.737Z,99.90
2022-10-23T06:16:11.819Z,99.90
2022-10-23T06:18:40.532Z,99.90
2022-10-23T06:21:14.256Z,99.90
2022-10-23T06:23:44.042Z,99.90
2022-10-23T06:26:27.137Z,99.90
2022-10-23T06:29:22.684Z,99.90
2022-10-23T06:31:52.178Z,99.90
2022-10-23T06:34:20.837Z,99.90
2022-10-23T06:36:49.248Z,99.90
2022-10-23T06:39:52.898Z,99.90
2022-10-23T06:42:27.888Z,99.90
2022-10-23T06:44:57.778Z,99.90
2022-10-23T06:47:45.005Z,99.90
2022-10-23T06:50:32.237Z,99.90
2022-10-23T06:53:06.564Z,99.90
2022-10-23T06:55:39.990Z,99.90
2022-10-23T06:58:10.799Z,99.90
2022-10-23T07:00:55.334Z,99.90
2022-10-23T07:03:23.849Z,99.90
2022-10-23T07:05:52.146Z,99.90
2022-10-23T07:08:21.799Z,99.90
2022-10-23T07:10:53.312Z,99.90
2022-10-23T07:13:22.698Z,99.90
2022-10-23T07:16:17.936Z,99.90
2022-10-23T07:18:47.450Z,99.90
2022-10-23T07:21:28.717Z,99.90
2022-10-23T07:24:05.528Z,99.90
2022-10-23T07:26:36.479Z,99.90
2022-10-23T07:29:04.967Z,99.90
2022-10-23T07:31:36.430Z,99.90
2022-10-23T07:34:23.147Z,99.90
2022-10-23T07:37:04.677Z,99.90
2022-10-23T07:39:33.024Z,99.90
2022-10-23T07:42:01.978Z,99.90
2022-10-23T07:44:30.289Z,99.90
2022-10-23T07:46:59.856Z,99.90
2022-10-23T07:49:28.608Z,99.90
2022-10-23T07:51:58.930Z,99.90
2022-10-23T07:54:34.746Z,99.90
2022-10-23T07:57:18.655Z,99.90
2022-10-23T07:59:50.325Z,99.90
2022-10-23T08:02:23.623Z,99.90
2022-10-23T08:04:52.058Z,99.90
2022-10-23T08:07:32.483Z,99.90
2022-10-23T08:10:01.572Z,99.90
2022-10-23T08:12:31.228Z,99.90
2022-10-23T08:14:59.585Z,99.90
2022-10-23T08:17:36.954Z,99.90
2022-10-23T08:20:14.690Z,99.90
2022-10-23T08:22:45.628Z,99.90
2022-10-23T08:25:24.719Z,99.90
2022-10-23T08:27:54.609Z,99.90
2022-10-23T08:30:23.186Z,99.90
2022-10-23T08:32:52.917Z,99.90
2022-10-23T08:35:21.498Z,99.90
2022-10-23T08:37:50.054Z,99.90
2022-10-23T08:40:20.767Z,99.90
2022-10-23T08:43:16.859Z,99.90
2022-10-23T08:46:07.310Z,99.90
2022-10-23T08:49:04.554Z,99.90
2022-10-23T08:51:58.706Z,99.90
2022-10-23T08:54:35.188Z,99.90
2022-10-23T08:57:10.389Z,99.90
2022-10-23T08:59:44.381Z,99.90
2022-10-23T09:02:20.340Z,99.90
2022-10-23T09:04:52.977Z,99.90
2022-10-23T09:07:32.407Z,99.90
2022-10-23T09:10:13.706Z,99.90
2022-10-23T09:12:43.959Z,99.90
2022-10-23T09:15:22.156Z,99.90
2022-10-23T09:17:57.245Z,99.90
2022-10-23T09:20:34.133Z,99.90
2022-10-23T09:23:04.408Z,99.90
2022-10-23T09:25:36.528Z,99.90
2022-10-23T09:28:05.940Z,99.90
2022-10-23T09:30:36.962Z,99.90
2022-10-23T09:33:15.968Z,99.90
2022-10-23T09:35:56.486Z,99.90
2022-10-23T09:38:29.988Z,99.90
2022-10-23T09:41:01.109Z,99.90
2022-10-23T09:43:30.331Z,99.90
2022-10-23T09:46:06.458Z,99.90
2022-10-23T09:48:37.017Z,99.90
2022-10-23T09:51:18.077Z,99.90
2022-10-23T09:53:52.515Z,99.90
2022-10-23T09:56:29.205Z,99.90
2022-10-23T09:59:00.714Z,99.90
2022-10-23T10:01:31.315Z,99.90
2022-10-23T10:04:18.792Z,99.90
2022-10-23T10:06:59.510Z,99.90
2022-10-23T10:09:27.917Z,99.90
2022-10-23T10:11:59.337Z,99.90
2022-10-23T10:14:49.667Z,99.90
2022-10-23T10:17:25.037Z,99.90
2022-10-23T10:20:22.100Z,99.90
2022-10-23T10:22:57.397Z,99.90
2022-10-23T10:25:33.104Z,99.90
2022-10-23T10:28:18.016Z,99.90
2022-10-23T10:30:53.505Z,99.90
2022-10-23T10:33:28.706Z,99.90
2022-10-23T10:36:03.605Z,99.90
2022-10-23T10:38:45.765Z,99.90
2022-10-23T10:41:42.367Z,99.90
2022-10-23T10:44:33.325Z,99.90
2022-10-23T10:47:13.265Z,99.90
2022-10-23T10:49:55.117Z,99.90
2022-10-23T10:52:55.079Z,99.90
2022-10-23T10:55:31.280Z,99.90
2022-10-23T10:58:04.037Z,99.90
2022-10-23T11:00:35.435Z,99.90
2022-10-23T11:03:12.588Z,99.90
2022-10-23T11:05:45.729Z,99.90
2022-10-23T11:08:18.174Z,99.90
2022-10-23T11:10:50.795Z,99.90
2022-10-23T11:13:28.047Z,99.90
2022-10-23T11:16:00.862Z,99.90
2022-10-23T11:18:32.062Z,99.90
2022-10-23T11:21:11.444Z,99.90
2022-10-23T11:24:16.444Z,99.90
2022-10-23T11:27:00.020Z,99.90
2022-10-23T11:29:51.810Z,99.90
2022-10-23T11:32:47.517Z,99.90
2022-10-23T11:35:27.776Z,99.90
2022-10-23T11:38:01.472Z,99.90
2022-10-23T11:40:30.945Z,99.90
2022-10-23T11:43:00.691Z,99.40
2022-10-23T11:45:31.627Z,97.90
2022-10-23T11:48:01.654Z,97.60
2022-10-23T11:50:32.771Z,97.30
2022-10-23T11:53:16.063Z,97.00
2022-10-23T11:56:02.217Z,96.90
2022-10-23T11:58:42.991Z,98.40
2022-10-23T12:01:37.550Z,99.80
2022-10-23T12:04:19.657Z,99.30
2022-10-23T12:06:50.624Z,99.90
2022-10-23T12:09:41.939Z,99.90
2022-10-23T12:12:28.341Z,99.90
2022-10-23T12:15:09.667Z,99.90
2022-10-23T12:17:40.733Z,95.70
2022-10-23T12:20:24.283Z,91.40
2022-10-23T12:23:07.134Z,84.40
2022-10-23T12:25:46.180Z,79.90
2022-10-23T12:28:26.416Z,74.90
2022-10-23T12:31:05.139Z,72.80
2022-10-23T12:33:40.687Z,69.00
2022-10-23T12:36:28.385Z,66.40
2022-10-23T12:38:58.811Z,62.90
2022-10-23T12:41:28.938Z,60.70
2022-10-23T12:43:59.891Z,58.90
2022-10-23T12:46:35.078Z,58.10
2022-10-23T12:49:15.106Z,56.80
2022-10-23T12:51:43.366Z,55.30
2022-10-23T12:54:17.637Z,54.60
2022-10-23T12:56:47.419Z,54.90
2022-10-23T12:59:18.251Z,54.00
2022-10-23T13:01:52.372Z,52.20
2022-10-23T13:04:29.514Z,52.00
2022-10-23T13:07:00.377Z,50.70
2022-10-23T13:09:32.076Z,50.80
2022-10-23T13:12:24.655Z,49.80
2022-10-23T13:14:59.785Z,49.30
2022-10-23T13:17:41.545Z,49.20
2022-10-23T13:20:11.896Z,48.50
2022-10-23T13:22:42.695Z,48.30
2022-10-23T13:25:27.967Z,48.40
2022-10-23T13:28:13.967Z,48.80
2022-10-23T13:30:46.297Z,49.00
2022-10-23T13:33:35.245Z,49.10
2022-10-23T13:36:07.264Z,48.90
2022-10-23T13:38:37.197Z,49.50
2022-10-23T13:41:13.412Z,50.40
2022-10-23T13:43:42.216Z,50.70
2022-10-23T13:46:15.941Z,50.30
2022-10-23T13:48:47.089Z,50.40
2022-10-23T13:51:17.515Z,50.30
2022-10-23T13:53:46.283Z,50.30
2022-10-23T13:56:16.067Z,50.60
2022-10-23T13:58:44.439Z,50.80
2022-10-23T14:01:22.216Z,50.80
2022-10-23T14:03:53.008Z,51.10
2022-10-23T14:06:21.668Z,51.20
2022-10-23T14:08:50.116Z,51.50
2022-10-23T14:11:20.469Z,51.40
2022-10-23T14:13:49.268Z,51.10
2022-10-23T14:16:19.539Z,50.70
2022-10-23T14:18:47.917Z,50.40
2022-10-23T14:21:21.065Z,50.00
2022-10-23T14:23:50.130Z,49.90
2022-10-23T14:26:21.038Z,49.80
2022-10-23T14:28:49.741Z,49.80
2022-10-23T14:31:19.027Z,49.80
2022-10-23T14:33:47.967Z,49.70
2022-10-23T14:38:45.924Z,49.80
2022-10-23T14:41:15.640Z,49.80
2022-10-23T14:43:44.264Z,50.10
2022-10-23T14:46:14.879Z,50.50
2022-10-23T14:48:46.191Z,51.10
2022-10-23T14:51:22.735Z,51.20
2022-10-23T14:53:58.871Z,51.90
2022-10-23T14:56:27.696Z,52.60
2022-10-23T14:59:02.579Z,52.90
2022-10-23T15:01:31.166Z,53.20
2022-10-23T15:03:59.627Z,53.60
2022-10-23T15:06:29.335Z,53.90
2022-10-23T15:08:57.988Z,54.30
2022-10-23T15:11:27.307Z,54.70
2022-10-23T15:13:56.056Z,55.60
2022-10-23T15:16:24.908Z,56.50
2022-10-23T15:18:53.669Z,56.30
2022-10-23T15:21:22.016Z,56.50
2022-10-23T15:23:53.005Z,57.20
2022-10-23T15:26:23.653Z,57.40
2022-10-23T15:28:55.338Z,58.20
2022-10-23T15:31:44.387Z,58.30
2022-10-23T15:34:14.795Z,60.00
2022-10-23T15:36:44.909Z,59.20
2022-10-23T15:39:16.270Z,59.40
2022-10-23T15:41:44.999Z,59.40
2022-10-23T15:44:15.363Z,59.90
2022-10-23T15:46:44.116Z,59.90
2022-10-23T15:49:12.915Z,60.40
2022-10-23T15:51:42.358Z,61.00
2022-10-23T15:54:17.172Z,61.10
2022-10-23T15:56:45.946Z,62.20
2022-10-23T15:59:14.596Z,62.60
2022-10-23T16:01:43.630Z,62.60
2022-10-23T16:04:12.295Z,63.50
2022-10-23T16:06:40.889Z,64.10
2022-10-23T16:09:09.266Z,64.80
2022-10-23T16:11:40.226Z,66.70
2022-10-23T16:14:08.948Z,67.20
2022-10-23T16:16:37.559Z,67.90
2022-10-23T16:19:06.442Z,68.70
2022-10-23T16:21:36.808Z,68.30
2022-10-23T16:24:08.375Z,68.70
2022-10-23T16:26:39.107Z,69.20
2022-10-23T16:29:09.056Z,71.40
2022-10-23T16:31:37.606Z,72.50
2022-10-23T16:34:06.783Z,73.90
2022-10-23T16:36:39.098Z,74.40
2022-10-23T16:39:11.380Z,75.20
2022-10-23T16:41:59.455Z,76.10
2022-10-23T16:44:37.449Z,77.90
2022-10-23T16:47:07.465Z,78.60
2022-10-23T16:49:36.087Z,79.80
2022-10-23T16:52:04.388Z,81.00
2022-10-23T16:54:32.785Z,81.90
2022-10-23T16:57:02.523Z,82.80
2022-10-23T16:59:30.768Z,82.00
2022-10-23T17:01:59.152Z,82.70
2022-10-23T17:04:27.564Z,84.80
2022-10-23T17:06:55.856Z,85.50
2022-10-23T17:09:26.539Z,87.40
2022-10-23T17:11:54.941Z,90.90
2022-10-23T17:14:29.221Z,91.90
2022-10-23T17:17:01.167Z,93.00
2022-10-23T17:19:47.053Z,92.70
2022-10-23T17:22:15.646Z,93.20
2022-10-23T17:24:47.399Z,93.30
2022-10-23T17:27:18.483Z,94.00
2022-10-23T17:29:48.174Z,93.80
2022-10-23T17:32:16.615Z,93.90
2022-10-23T17:34:44.967Z,93.50
2022-10-23T17:37:14.494Z,94.00
2022-10-23T17:39:43.202Z,93.80
2022-10-23T17:42:11.558Z,94.70
2022-10-23T17:44:39.818Z,94.80
2022-10-23T17:47:09.459Z,94.90
2022-10-23T17:49:38.743Z,94.90
2022-10-23T17:52:10.255Z,95.10
2022-10-23T17:54:38.544Z,95.20
2022-10-23T17:57:06.797Z,97.10
2022-10-23T17:59:35.045Z,97.10
2022-10-23T18:02:03.482Z,96.40
2022-10-23T18:04:33.103Z,96.60
2022-10-23T18:07:01.401Z,96.40
2022-10-23T18:09:29.696Z,96.70
2022-10-23T18:11:58.015Z,97.10
2022-10-23T18:14:29.355Z,97.20
2022-10-23T18:16:58.006Z,97.30
2022-10-23T18:19:26.450Z,97.60
2022-10-23T18:21:56.067Z,97.40
2022-10-23T18:24:25.709Z,97.70
2022-10-23T18:26:54.028Z,97.70
2022-10-23T18:29:22.866Z,97.70
2022-10-23T18:31:51.427Z,97.60
2022-10-23T18:34:21.963Z,97.40
2022-10-23T18:36:51.604Z,97.60
2022-10-23T18:39:23.747Z,97.40
2022-10-23T18:41:54.647Z,97.40
2022-10-23T18:44:24.026Z,97.30
2022-10-23T18:46:52.976Z,97.60
2022-10-23T18:49:21.661Z,97.70
2022-10-23T18:51:50.847Z,97.70
2022-10-23T18:54:22.354Z,97.70
2022-10-23T18:56:50.959Z,97.70
2022-10-23T18:59:21.481Z,97.70
2022-10-23T19:01:50.361Z,97.70
2022-10-23T19:04:19.348Z,97.50
2022-10-23T19:06:49.922Z,97.30
2022-10-23T19:09:18.487Z,97.70
2022-10-23T19:11:48.473Z,97.60
2022-10-23T19:14:16.770Z,97.80
2022-10-23T19:16:53.435Z,97.70
2022-10-23T19:19:24.749Z,97.60
2022-10-23T19:21:54.331Z,97.40
2022-10-23T19:24:27.149Z,97.20
2022-10-23T19:26:57.619Z,97.20
2022-10-23T19:29:27.605Z,97.10
2022-10-23T19:31:56.217Z,97.10
2022-10-23T19:34:25.247Z,97.00
2022-10-23T19:36:54.714Z,97.20
2022-10-23T19:39:23.117Z,97.30
2022-10-23T19:41:51.990Z,97.30
2022-10-23T19:44:22.327Z,97.90
2022-10-23T19:46:50.709Z,97.80
2022-10-23T19:49:19.636Z,97.90
2022-10-23T19:51:51.281Z,97.90
2022-10-23T19:54:20.861Z,97.70
2022-10-23T19:56:49.943Z,97.50
2022-10-23T19:59:18.978Z,97.40
2022-10-23T20:01:49.416Z,97.40
2022-10-23T20:04:18.941Z,97.50
2022-10-23T20:06:48.141Z,97.40
2022-10-23T20:09:16.571Z,97.20
2022-10-23T20:11:45.481Z,97.10
2022-10-23T20:14:14.661Z,97.10
2022-10-23T20:16:45.139Z,97.00
2022-10-23T20:21:47.827Z,97.10
2022-10-23T20:24:17.768Z,97.30
2022-10-23T20:26:49.310Z,97.20
2022-10-23T20:29:17.936Z,97.20
2022-10-23T20:31:46.445Z,97.40
2022-10-23T20:34:16.059Z,97.40
2022-10-23T20:36:47.035Z,97.50
2022-10-23T20:39:18.598Z,97.50
2022-10-23T20:41:47.350Z,97.70
2022-10-23T20:46:46.768Z,97.50
2022-10-23T20:49:17.434Z,97.40
2022-10-23T20:51:45.793Z,97.20
2022-10-23T20:54:14.137Z,97.10
2022-10-23T20:56:42.493Z,97.10
2022-10-23T20:59:13.706Z,97.10
2022-10-23T21:01:43.632Z,97.10
2022-10-23T21:04:13.948Z,97.00
2022-10-23T21:07:08.290Z,97.10
2022-10-23T21:09:32.535Z,97.20
2022-10-23T21:12:00.788Z,97.30
2022-10-23T21:14:29.606Z,97.50
2022-10-23T21:16:57.905Z,98.20
2022-10-23T21:19:26.178Z,98.60
2022-10-23T21:21:56.397Z,99.30
2022-10-23T21:24:25.218Z,99.30
2022-10-23T21:26:53.467Z,99.60
2022-10-23T21:29:21.807Z,99.90
2022-10-23T21:31:54.725Z,99.90
2022-10-23T21:34:23.516Z,99.90
2022-10-23T21:39:41.586Z,99.90
2022-10-23T21:42:10.266Z,99.90
2022-10-23T21:44:38.803Z,99.90
2022-10-23T21:47:07.136Z,99.90
2022-10-23T21:49:35.416Z,99.90
2022-10-23T21:52:04.479Z,99.90
2022-10-23T21:54:32.968Z,99.90
2022-10-23T21:57:03.388Z,99.90
2022-10-23T21:59:35.541Z,99.90
2022-10-23T22:02:04.832Z,99.90
2022-10-23T22:04:33.353Z,99.90
2022-10-23T22:07:02.790Z,99.90
2022-10-23T22:09:31.947Z,99.90
2022-10-23T22:12:02.330Z,99.90
2022-10-23T22:14:30.639Z,99.90
2022-10-23T22:16:59.187Z,99.90
2022-10-23T22:19:27.492Z,99.90
2022-10-23T22:21:55.807Z,99.90
2022-10-23T22:24:24.477Z,99.90
2022-10-23T22:26:55.286Z,99.90
2022-10-23T22:29:26.708Z,99.90
2022-10-23T22:31:55.438Z,99.90
2022-10-23T22:34:47.737Z,99.90
2022-10-23T22:37:13.978Z,99.90
2022-10-23T22:39:42.430Z,99.90
2022-10-23T22:42:11.069Z,99.90
2022-10-23T22:44:40.648Z,99.90
2022-10-23T22:47:08.928Z,99.90
2022-10-23T22:49:38.420Z,99.90
2022-10-23T22:52:06.696Z,99.90
2022-10-23T22:54:35.198Z,99.90
2022-10-23T22:57:03.438Z,99.90
2022-10-23T22:59:31.725Z,99.90
2022-10-23T23:02:01.237Z,99.90
2022-10-23T23:04:38.176Z,99.90
2022-10-23T23:07:07.508Z,99.90
2022-10-23T23:09:38.863Z,99.90
2022-10-23T23:12:08.870Z,99.90
2022-10-23T23:14:37.632Z,99.90
2022-10-23T23:17:07.698Z,99.90
2022-10-23T23:19:36.538Z,99.90
2022-10-23T23:22:05.398Z,99.90
2022-10-23T23:24:34.007Z,99.90
2022-10-23T23:27:02.415Z,99.90
2022-10-23T23:29:30.735Z,99.90
2022-10-23T23:31:59.129Z,99.90
2022-10-23T23:34:29.697Z,99.90
2022-10-23T23:36:58.024Z,99.90
2022-10-23T23:39:28.506Z,99.90
2022-10-23T23:41:57.203Z,99.90
2022-10-23T23:44:25.476Z,99.90
2022-10-23T23:46:53.754Z,99.90
2022-10-23T23:49:22.046Z,99.90
2022-10-23T23:51:51.848Z,99.90
2022-10-23T23:54:20.250Z,99.90
2022-10-23T23:56:48.800Z,99.90
2022-10-23T23:59:17.001Z,99.90
